Aérodrome :
LOGIN :

S'inscrire | Disclaimer

   EN    FR    IT 

 










Légende :    VFR   VFR Marginal   IFR   IFR Intensif   IFR Très Intensif
Visi : 
Plafond : 
>= 8 km
>= 3000ft
5 à 8 km
1000 à 3000 ft
1500m à 5 km
500 à 1000 ft
800 à 1500m
200 à 500 ft
< 800m
< 200 ft
Symboles :   Orages  Brouillard  Fortes neiges  Fortes précipitations  Vent > 20 kt
SIGMETs :   Divers  Orages  Givrage  Turbulence  Onde Orograph.  Cendres Volcan.







- Altitude de l'aérodrome : 194 ft


EBCV - Chièvres

DERNIER METAR :
  • 231555Z AUTO 22011KT 9999 BKN078/// BKN110/// 20/11 Q1013 BLU

METARs EXPIRÉS :
  • 231525Z AUTO 21009KT 9999 BKN072/// BKN091/// 18/11 Q1013 BLU
  • 231455Z AUTO 21009KT 9999 BKN072/// 17/12 Q1014 BLU
  • 231425Z AUTO 22013KT 9999 -RA FEW024/// BKN046/// BKN075/// 16/12 Q1014 BLU
  • 231355Z AUTO 22011KT 9999 -RA OVC066/// 17/13 Q1014 BLU

TAF TAF EBCV
Valide du 23 à 13h jusqu'au 23 à 22h UTC


231141Z 2313/2322 22012KT 9999 FEW025 SCT050
TEMPO 2313/2322 22015KT 5000 -RA -SHRA SCT020 BKN030
PROB30
TEMPO 2313/2320 22018G28KT 3000 SHRA SCT015TCU BKN025 BY EBWM
Pas de NOTAMs connus pour ce terrain.



MET'MAP, la Météo Aéronautique d'un coup d'oeil ! - Copyright ORBIFLY Décembre 2007 - Disclaimer

ORBIFLY MET'MAP TEAM :

Programmation & Développement : Alexandra Zaïnal
Conception & Développement : Baudouin d'Aumeries
Co-Programmation & Développement : Marc-Olivier Méhu
Soutien technique & logistique : Manuel Goepfert

Contact : metmap@orbifly.com




SOURCES & CREDITS :

   NOAA